»·PEaware :: N623JM KOTH-KOLM

N623JM :: KOTH-KOLM

FLIGHT INFORMATION

Flight Status: Arrived
Operator: Privately registered:
United States
More flights under this callsign
Pilot: Joe M. (18884)
Aircraft: BOMBARDIER BD-100 CHALLENGER 300
(CL30)
More flights by this aircraft type
Origin: KOTH North Bend Mun
United States
Destination: KOLM Olympia
United States
More flights between these airports :: More routes between these airports
Route: OTH6 GAMMA OLM
File this flight plan on PilotEdge
Remarks:
Altitude:
(Current/Filed)
30,000ft
Speed:
(Current/Filed)
400kts
Departed: 22-Jun-18 04:01 PM
Arrived: 22-Jun-18 04:44 PM
Distance/Time
Traveled:
221nm/0:43
Distance/Time
To Go:
Arrived

Flight Plot

Page will automatically refresh every two minutes.

Flight plan parsing failed; only flown route is shown


Map Options




Map Legend


Flown Route
Filed Route
Departure Airport
Arrival Airport
Navaid (VOR, NDB)
Fix

Horizontal Profiles

Position Reports

Time Latitude Longitude Heading Altitude Ground
Speed
22-Jun-18 15:12 43.415461 -124.245611 330 28ft 0kts
22-Jun-18 15:13 43.415461 -124.245611 330 28ft 0kts
22-Jun-18 15:14 43.415461 -124.245611 330 28ft 0kts
22-Jun-18 15:15 43.415461 -124.245611 330 28ft 0kts
22-Jun-18 15:16 43.415461 -124.245611 330 28ft 0kts
22-Jun-18 15:17 43.415461 -124.245611 330 28ft 0kts
22-Jun-18 15:18 43.415461 -124.245611 330 28ft 0kts
22-Jun-18 15:19 43.415461 -124.245611 330 28ft 0kts
22-Jun-18 15:20 43.415461 -124.245611 330 28ft 0kts
22-Jun-18 15:21 43.415461 -124.245611 330 28ft 0kts
22-Jun-18 15:22 43.415461 -124.245611 330 28ft 0kts
22-Jun-18 15:23 43.415461 -124.245611 330 28ft 0kts
22-Jun-18 15:24 43.415461 -124.245611 330 28ft 0kts
22-Jun-18 15:25 43.415461 -124.245611 330 28ft 0kts
22-Jun-18 15:26 43.415461 -124.245611 330 28ft 0kts
22-Jun-18 15:27 43.415461 -124.245611 330 28ft 0kts
22-Jun-18 15:28 43.415461 -124.245611 330 28ft 0kts
22-Jun-18 15:29 43.415461 -124.245611 330 28ft 0kts
22-Jun-18 15:30 43.415461 -124.245611 330 28ft 0kts
22-Jun-18 15:31 43.415461 -124.245611 330 28ft 0kts
22-Jun-18 15:32 43.415461 -124.245611 330 28ft 0kts
22-Jun-18 15:33 43.415461 -124.245611 330 28ft 0kts
22-Jun-18 15:34 43.415461 -124.245611 330 28ft 0kts
22-Jun-18 15:35 43.415461 -124.245611 330 28ft 0kts
22-Jun-18 15:36 43.415461 -124.245611 330 28ft 0kts
22-Jun-18 15:37 43.415461 -124.245611 330 28ft 0kts
22-Jun-18 15:38 43.415461 -124.245611 330 28ft 0kts
22-Jun-18 15:39 43.415461 -124.245611 330 28ft 0kts
22-Jun-18 15:40 43.415461 -124.245611 330 28ft 0kts
22-Jun-18 15:41 43.415461 -124.245611 330 28ft 0kts
22-Jun-18 15:42 43.415462 -124.245611 330 28ft 0kts
22-Jun-18 15:43 43.415462 -124.245611 330 28ft 0kts
22-Jun-18 15:44 43.415462 -124.245611 330 28ft 0kts
22-Jun-18 15:45 43.415462 -124.245611 330 28ft 0kts
22-Jun-18 15:46 43.415462 -124.245611 330 28ft 0kts
22-Jun-18 15:47 43.415462 -124.245611 330 28ft 0kts
22-Jun-18 15:48 43.415467 -124.245615 330 28ft 0kts
22-Jun-18 15:49 43.415509 -124.245647 330 28ft 0kts
22-Jun-18 15:50 43.415509 -124.245647 330 28ft 0kts
22-Jun-18 15:51 43.415509 -124.245647 330 28ft 0kts
22-Jun-18 15:52 43.415535 -124.245664 335 28ft 5kts
22-Jun-18 15:53 43.416388 -124.244939 347 23ft 0kts
22-Jun-18 15:54 43.417844 -124.246081 328 23ft 11kts
22-Jun-18 15:55 43.417780 -124.250078 241 28ft 8kts
22-Jun-18 15:56 43.416279 -124.253722 241 25ft 6kts
22-Jun-18 15:57 43.414825 -124.257327 240 14ft 11kts
22-Jun-18 15:58 43.413904 -124.259647 256 10ft 1kts
22-Jun-18 15:59 43.414886 -124.260279 61 9ft 0kts
22-Jun-18 16:00 43.414886 -124.260279 61 9ft 0kts
22-Jun-18 16:01 43.427130 -124.236007 33 580ft 177kts
22-Jun-18 16:02 43.471745 -124.246677 306 2545ft 247kts
22-Jun-18 16:03 43.444939 -124.338661 245 6056ft 286kts
22-Jun-18 16:04 43.443212 -124.440207 310 9029ft 289kts
22-Jun-18 16:05 43.523359 -124.436195 13 13181ft 328kts
22-Jun-18 16:06 43.612067 -124.399815 12 16948ft 345kts
22-Jun-18 16:07 43.705073 -124.361081 10 20123ft 361kts
22-Jun-18 16:08 43.801740 -124.320631 10 22575ft 370kts
22-Jun-18 16:09 43.901177 -124.278683 10 24559ft 380kts
22-Jun-18 16:10 44.003468 -124.235248 9 26310ft 390kts
22-Jun-18 16:11 44.107936 -124.190699 9 27842ft 399kts
22-Jun-18 16:12 44.211481 -124.146430 8 29739ft 394kts
22-Jun-18 16:13 44.318288 -124.100720 9 30298ft 422kts
22-Jun-18 16:14 44.433805 -124.051167 9 30296ft 453kts
22-Jun-18 16:15 44.555593 -123.999093 10 30293ft 468kts
22-Jun-18 16:16 44.678983 -123.945419 10 30291ft 467kts
22-Jun-18 16:17 44.802305 -123.891549 10 30291ft 466kts
22-Jun-18 16:18 44.924459 -123.837846 10 30022ft 465kts
22-Jun-18 16:19 45.048380 -123.783166 9 28220ft 464kts
22-Jun-18 16:20 45.166872 -123.730669 9 26460ft 449kts
22-Jun-18 16:21 45.283903 -123.678610 9 24683ft 436kts
22-Jun-18 16:22 45.397297 -123.627973 10 22909ft 424kts
22-Jun-18 16:23 45.506934 -123.578782 10 21143ft 412kts
22-Jun-18 16:24 45.614243 -123.530449 11 19364ft 400kts
22-Jun-18 16:25 45.718063 -123.483525 11 17588ft 388kts
22-Jun-18 16:26 45.818627 -123.437927 12 15814ft 376kts
22-Jun-18 16:27 45.916215 -123.393478 13 14033ft 364kts
22-Jun-18 16:28 46.010177 -123.350518 13 12252ft 350kts
22-Jun-18 16:29 46.100535 -123.309074 15 10622ft 353kts
22-Jun-18 16:30 46.191242 -123.267243 15 10008ft 318kts
22-Jun-18 16:31 46.270853 -123.230452 14 10013ft 294kts
22-Jun-18 16:32 46.345693 -123.195800 15 8532ft 286kts
22-Jun-18 16:33 46.417230 -123.162575 16 6749ft 265kts
22-Jun-18 16:34 46.487403 -123.129881 16 5996ft 258kts
22-Jun-18 16:35 46.552449 -123.099491 16 5999ft 243kts
22-Jun-18 16:36 46.613352 -123.070963 16 6034ft 224kts
22-Jun-18 16:37 46.666317 -123.046124 16 5090ft 206kts
22-Jun-18 16:38 46.720531 -123.020643 17 3986ft 198kts
22-Jun-18 16:39 46.770125 -122.991981 21 3994ft 189kts
22-Jun-18 16:40 46.817715 -122.961547 19 3297ft 193kts
22-Jun-18 16:41 46.870731 -122.933367 16 2173ft 205kts
22-Jun-18 16:42 46.921797 -122.918319 5 1087ft 179kts
22-Jun-18 16:43 46.965688 -122.905449 7 204ft 138kts
22-Jun-18 16:44 46.975374 -122.901944 73 199ft 0kts
22-Jun-18 16:45 46.975648 -122.901361 51 199ft 9kts
22-Jun-18 16:46 46.975732 -122.899808 142 199ft 6kts
22-Jun-18 16:47 46.975841 -122.899427 282 198ft 0kts
22-Jun-18 16:48 46.975841 -122.899427 282 198ft 0kts
22-Jun-18 16:49 46.975841 -122.899427 282 198ft 0kts
22-Jun-18 16:50 46.975841 -122.899427 282 198ft 0kts

Navigation Log

Ident Type
Flight plan parsing failed, navigation log unavailable